Time;durP1;ratioP1;P1;durP2;ratioP2;P2;SDS_P1;SDS_P2;PMS_P1;PMS_P2;Temp;Humidity;BMP_temperature;BMP_pressure;BME280_temperature;BME280_humidity;BME280_pressure;Samples;Min_cycle;Max_cycle;Signal;HPM_P1;HPM_P2
2023/04/14 00:01:17;;;;;;;2.20;2.00;;;;;;;4.96;47.44;148555.34;5095205;28;20070;-64
2023/04/14 00:03:43;;;;;;;2.63;2.20;;;;;;;4.76;47.02;148505.53;5097922;28;20028;-63
2023/04/14 00:06:08;;;;;;;2.85;1.98;;;;;;;4.70;46.98;148490.25;5086693;28;20032;-64
2023/04/14 00:08:34;;;;;;;2.67;2.20;;;;;;;4.75;47.64;148503.03;5104615;28;20028;-63
2023/04/14 00:11:00;;;;;;;2.90;2.30;;;;;;;4.96;47.67;148555.34;5086771;28;20245;-63
2023/04/14 00:13:25;;;;;;;3.22;2.47;;;;;;;4.95;46.98;148554.06;5097018;28;20058;-63
2023/04/14 00:15:51;;;;;;;2.97;2.10;;;;;;;5.04;47.67;148574.50;5095236;28;20217;-62
2023/04/14 00:18:17;;;;;;;3.97;2.33;;;;;;;4.90;47.40;148541.28;5087218;28;20027;-63
2023/04/14 00:20:42;;;;;;;4.60;2.10;;;;;;;4.69;47.59;148487.69;5116831;28;20039;-63
2023/04/14 00:23:08;;;;;;;4.10;2.40;;;;;;;4.70;47.23;148491.50;5105236;28;20306;-63
2023/04/14 00:25:33;;;;;;;3.33;2.25;;;;;;;4.62;48.04;148471.13;5090200;28;20037;-64
2023/04/14 00:27:59;;;;;;;3.55;2.45;;;;;;;4.63;47.38;148474.94;5093016;28;20096;-63
2023/04/14 00:30:25;;;;;;;6.45;2.90;;;;;;;4.45;47.74;148429.00;5099508;28;20027;-63
2023/04/14 00:32:50;;;;;;;4.18;2.60;;;;;;;4.47;48.49;148435.34;5101200;28;20028;-64
2023/04/14 00:35:16;;;;;;;3.60;2.08;;;;;;;4.05;48.25;148329.47;5084242;28;20351;-64
2023/04/14 00:37:41;;;;;;;3.40;2.53;;;;;;;4.01;48.34;148320.53;5083850;28;20024;-63
2023/04/14 00:40:09;;;;;;;2.78;2.45;;;;;;;4.07;49.23;148334.56;5093676;28;20095;-63
2023/04/14 00:42:44;;;;;;;6.55;3.00;;;;;;;4.10;48.32;148343.47;5098294;28;20043;-64
2023/04/14 00:45:11;;;;;;;3.90;2.60;;;;;;;4.23;48.35;148374.09;5085459;28;20024;-64
2023/04/14 00:47:38;;;;;;;3.42;2.53;;;;;;;4.20;48.32;148367.72;5103922;28;20371;-65
2023/04/14 00:50:05;;;;;;;2.47;2.28;;;;;;;4.28;48.75;148388.16;5085837;28;20040;-63
2023/04/14 00:52:31;;;;;;;2.97;2.67;;;;;;;4.02;48.43;148323.09;5083469;28;20313;-63
2023/04/14 00:54:58;;;;;;;2.38;2.17;;;;;;;4.08;49.07;148337.13;5092087;28;20050;-63
2023/04/14 00:57:25;;;;;;;4.75;2.97;;;;;;;4.13;48.59;148349.84;5103478;28;20023;-64
2023/04/14 00:59:52;;;;;;;5.13;2.67;;;;;;;4.18;48.04;148362.63;5103331;28;20036;-62
2023/04/14 01:02:18;;;;;;;4.38;2.80;;;;;;;3.95;49.21;148306.50;5103696;28;20035;-63
2023/04/14 01:04:43;;;;;;;2.83;2.40;;;;;;;4.02;48.85;148323.09;5087285;28;20025;-63
2023/04/14 01:07:09;;;;;;;5.13;2.92;;;;;;;3.87;48.54;148286.06;5093126;28;20024;-62
2023/04/14 01:09:36;;;;;;;3.90;2.88;;;;;;;3.98;48.36;148312.88;5097965;28;20137;-64
2023/04/14 01:12:30;;;;;;;6.15;3.08;;;;;;;3.88;48.72;148287.38;5082040;28;20028;-63
2023/04/14 01:15:21;;;;;;;2.60;2.40;;;;;;;3.65;48.84;148229.94;5103157;28;20036;-64
2023/04/14 01:18:06;;;;;;;3.13;2.70;;;;;;;3.68;48.64;148237.59;5098456;28;20095;-64
2023/04/14 01:20:38;;;;;;;3.97;3.00;;;;;;;3.65;48.82;148229.94;5082575;28;20036;-63
2023/04/14 01:23:07;;;;;;;5.88;2.83;;;;;;;3.39;49.07;148167.50;5100268;28;20039;-64
2023/04/14 01:25:45;;;;;;;4.00;2.88;;;;;;;3.42;49.26;148175.16;5101957;28;20024;-64
2023/04/14 01:28:48;;;;;;;3.58;3.00;;;;;;;3.40;49.81;148168.75;5092899;28;20043;-63
2023/04/14 01:31:30;;;;;;;3.70;2.78;;;;;;;3.36;49.37;148159.81;5086812;28;20024;-64
2023/04/14 01:34:02;;;;;;;2.60;2.33;;;;;;;3.32;49.25;148148.34;5095348;28;20094;-63
2023/04/14 01:36:33;;;;;;;;;;;;;;;3.21;49.95;148122.88;5083516;28;20047;-64
2023/04/14 01:39:03;;;;;;;4.50;3.53;;;;;;;3.03;49.79;148078.22;5089237;28;20195;-63
2023/04/14 01:41:30;;;;;;;3.67;2.70;;;;;;;3.00;49.89;148069.34;5082911;28;20032;-63
2023/04/14 01:44:00;;;;;;;3.00;2.70;;;;;;;2.98;50.00;148064.22;5082781;28;20020;-64
2023/04/14 01:46:26;;;;;;;3.38;3.00;;;;;;;3.15;49.80;148106.28;5094941;28;20116;-62
2023/04/14 01:48:52;;;;;;;3.38;3.03;;;;;;;3.09;50.35;148093.56;5099255;28;20088;-63
2023/04/14 01:51:20;;;;;;;4.28;2.55;;;;;;;2.58;50.61;147967.38;5121206;28;20030;-63
2023/04/14 01:53:48;;;;;;;5.72;3.20;;;;;;;2.58;50.77;147967.38;5102878;28;20048;-62
2023/04/14 01:56:16;;;;;;;3.58;3.08;;;;;;;2.85;50.44;148032.34;5084316;28;20047;-62
2023/04/14 01:58:44;;;;;;;3.22;2.78;;;;;;;2.76;50.71;148010.69;5096894;28;20032;-62
2023/04/14 02:01:10;;;;;;;4.68;3.10;;;;;;;2.84;50.70;148031.09;5093324;28;20036;-63
2023/04/14 02:03:37;;;;;;;4.28;3.22;;;;;;;2.76;50.58;148012.00;5087557;28;20016;-63
2023/04/14 02:06:05;;;;;;;3.88;2.97;;;;;;;2.99;50.71;148066.78;5102819;28;20032;-62
2023/04/14 02:08:31;;;;;;;3.03;2.72;;;;;;;2.81;50.45;148023.44;5082707;28;20037;-62
2023/04/14 02:10:59;;;;;;;3.45;3.15;;;;;;;2.84;50.74;148029.84;5098956;28;20047;-62
2023/04/14 02:13:27;;;;;;;9.10;3.22;;;;;;;2.65;51.09;147982.66;5091173;28;20312;-63
2023/04/14 02:15:54;;;;;;;5.07;3.00;;;;;;;2.61;51.37;147973.75;5089958;28;20036;-61
2023/04/14 02:18:22;;;;;;;3.17;2.33;;;;;;;2.40;51.42;147921.50;5099945;28;20028;-62
2023/04/14 02:20:51;;;;;;;4.13;3.10;;;;;;;2.49;51.59;147943.16;5081616;28;20031;-63
2023/04/14 02:23:17;;;;;;;3.20;2.88;;;;;;;2.62;51.21;147975.00;5082410;28;20092;-63
2023/04/14 02:25:56;;;;;;;3.33;2.72;;;;;;;2.31;51.49;147898.56;5099960;28;20031;-64
2023/04/14 02:28:27;;;;;;;3.22;2.92;;;;;;;2.47;51.61;147939.34;5095214;28;20044;-64
2023/04/14 02:30:56;;;;;;;3.47;2.72;;;;;;;2.24;51.42;147883.28;5092407;28;20028;-64
2023/04/14 02:33:28;;;;;;;6.00;2.78;;;;;;;2.21;51.96;147874.41;5088978;28;20024;-64
2023/04/14 02:36:03;;;;;;;6.78;3.42;;;;;;;2.34;51.66;147906.25;5105786;28;20333;-64
2023/04/14 02:38:36;;;;;;;4.43;2.78;;;;;;;2.24;52.00;147883.28;5086060;28;20036;-64
2023/04/14 02:41:10;;;;;;;5.30;3.42;;;;;;;2.09;51.94;147845.06;5102812;28;20028;-62
2023/04/14 02:43:53;;;;;;;6.82;2.65;;;;;;;1.86;52.85;147787.78;5093177;28;20025;-62
2023/04/14 02:46:21;;;;;;;4.25;3.20;;;;;;;2.16;52.24;147862.91;5096228;28;20066;-64
2023/04/14 02:48:49;;;;;;;3.42;3.10;;;;;;;2.08;52.30;147842.50;5105713;28;20026;-63
2023/04/14 02:51:16;;;;;;;3.30;2.60;;;;;;;2.04;52.61;147832.34;5104496;28;20035;-62
2023/04/14 02:53:43;;;;;;;4.65;3.50;;;;;;;2.27;51.91;147888.34;5085587;28;20044;-62
2023/04/14 02:56:09;;;;;;;5.57;2.70;;;;;;;2.03;52.55;147831.06;5085584;28;20047;-62
2023/04/14 02:58:36;;;;;;;2.55;2.28;;;;;;;2.07;52.40;147840.00;5098358;28;20028;-62
2023/04/14 03:01:02;;;;;;;3.22;2.35;;;;;;;2.00;52.48;147822.16;5106037;28;20031;-63
2023/04/14 03:03:29;;;;;;;4.15;3.08;;;;;;;2.33;52.07;147903.69;5105655;28;20040;-63
2023/04/14 03:05:55;;;;;;;2.40;2.20;;;;;;;2.33;51.65;147903.69;5104945;28;20092;-64
2023/04/14 03:08:22;;;;;;;4.93;3.05;;;;;;;2.23;51.86;147879.47;5086627;28;20028;-63
2023/04/14 03:10:50;;;;;;;5.60;2.85;;;;;;;2.17;51.69;147865.47;5085520;28;20029;-62
2023/04/14 03:13:18;;;;;;;3.60;2.60;;;;;;;2.40;51.52;147921.50;5095082;28;20031;-65
2023/04/14 03:15:44;;;;;;;3.80;2.63;;;;;;;2.42;50.96;147926.59;5100266;28;20039;-63
2023/04/14 03:18:11;;;;;;;3.75;2.47;;;;;;;2.60;51.25;147971.19;5085843;28;20036;-64
2023/04/14 03:20:39;;;;;;;2.95;2.70;;;;;;;2.45;51.26;147934.22;5104350;28;20027;-64
2023/04/14 03:23:10;;;;;;;3.63;2.42;;;;;;;2.51;50.50;147949.53;5088574;28;20087;-63
2023/04/14 03:25:37;;;;;;;3.63;2.50;;;;;;;2.66;50.39;147985.22;5083413;28;20036;-63
2023/04/14 03:28:05;;;;;;;4.65;2.38;;;;;;;2.96;48.85;148060.38;5084838;28;20048;-64
2023/04/14 03:30:33;;;;;;;3.38;2.20;;;;;;;3.53;47.98;148201.91;5083787;28;20046;-64
2023/04/14 03:33:06;;;;;;;3.58;2.20;;;;;;;3.41;47.89;148172.59;5103697;28;20047;-63
2023/04/14 03:35:33;;;;;;;2.75;2.00;;;;;;;3.69;46.88;148240.16;5084442;28;20025;-65
2023/04/14 03:38:01;;;;;;;2.40;2.17;;;;;;;3.69;47.04;148240.16;5100599;28;20031;-63
2023/04/14 03:40:30;;;;;;;2.70;2.00;;;;;;;3.09;47.40;148092.25;5093699;28;20025;-64
2023/04/14 03:43:01;;;;;;;2.47;2.08;;;;;;;3.18;47.40;148115.22;5091757;28;20293;-63
2023/04/14 03:45:27;;;;;;;2.88;2.13;;;;;;;3.36;47.32;148158.56;5100887;28;20040;-63
2023/04/14 03:48:01;;;;;;;3.10;2.10;;;;;;;3.11;47.79;148097.38;5084790;28;20096;-63
2023/04/14 03:50:31;;;;;;;2.22;2.03;;;;;;;3.06;48.08;148084.59;5084493;28;20035;-64
2023/04/14 03:53:00;;;;;;;2.20;1.80;;;;;;;2.90;48.15;148046.38;5100084;28;20085;-64
2023/04/14 03:55:26;;;;;;;3.42;2.08;;;;;;;2.82;48.63;148024.72;5104424;28;20082;-62
2023/04/14 03:57:56;;;;;;;2.15;1.95;;;;;;;2.86;48.58;148034.91;5098598;28;20034;-63
2023/04/14 04:00:24;;;;;;;2.92;2.17;;;;;;;2.81;48.90;148022.16;5083098;28;20223;-63
2023/04/14 04:02:50;;;;;;;3.97;2.30;;;;;;;2.66;49.34;147986.47;5084582;28;20052;-64
2023/04/14 04:05:16;;;;;;;2.40;2.15;;;;;;;2.62;49.70;147975.00;5102059;28;20032;-63
2023/04/14 04:07:45;;;;;;;4.70;2.50;;;;;;;2.44;49.63;147931.72;5091527;28;20032;-64
2023/04/14 04:10:13;;;;;;;3.17;2.25;;;;;;;2.53;49.10;147953.34;5091594;28;20059;-63
2023/04/14 04:12:41;;;;;;;4.10;2.50;;;;;;;2.70;48.29;147996.66;5100265;28;20032;-63
2023/04/14 04:15:08;;;;;;;5.97;1.95;;;;;;;2.35;48.83;147910.06;5084162;28;20040;-63
2023/04/14 04:17:35;;;;;;;3.15;2.00;;;;;;;2.35;49.40;147908.75;5085073;28;20094;-63
2023/04/14 04:20:05;;;;;;;6.65;2.00;;;;;;;2.37;49.24;147913.88;5083754;28;20336;-64
2023/04/14 04:22:34;;;;;;;2.78;1.90;;;;;;;2.42;49.37;147926.59;5095121;28;20042;-64
2023/04/14 04:25:00;;;;;;;8.23;2.47;;;;;;;2.73;48.63;148003.06;5097159;28;20309;-62
2023/04/14 04:27:27;;;;;;;2.30;2.10;;;;;;;2.55;48.41;147959.75;5084944;28;20104;-63
2023/04/14 04:29:53;;;;;;;3.83;2.38;;;;;;;2.65;48.18;147982.66;5104169;28;20038;-63
2023/04/14 04:32:19;;;;;;;2.78;2.17;;;;;;;2.64;48.19;147980.13;5097614;28;20032;-63
2023/04/14 04:34:48;;;;;;;3.92;2.40;;;;;;;2.81;48.16;148023.44;5090836;28;20093;-62
2023/04/14 04:37:15;;;;;;;4.28;2.13;;;;;;;2.53;48.14;147954.63;5083753;28;20025;-63
2023/04/14 04:39:40;;;;;;;4.03;1.98;;;;;;;2.64;47.90;147980.13;5087814;28;20027;-62
2023/04/14 04:42:06;;;;;;;3.10;2.15;;;;;;;2.71;47.70;147999.22;5103822;28;20317;-63
2023/04/14 04:44:33;;;;;;;4.57;2.10;;;;;;;2.59;47.67;147969.94;5103349;28;20032;-64
2023/04/14 04:47:00;;;;;;;4.30;2.10;;;;;;;2.74;48.03;148005.59;5115172;28;20041;-62
2023/04/14 04:49:26;;;;;;;7.22;2.30;;;;;;;3.06;47.23;148085.88;5100353;28;20386;-63
2023/04/14 04:51:52;;;;;;;6.13;2.60;;;;;;;3.21;46.84;148121.59;5083373;28;20044;-61
2023/04/14 04:54:18;;;;;;;3.25;1.98;;;;;;;3.07;46.10;148087.19;5083169;28;20050;-62
2023/04/14 04:56:43;;;;;;;4.15;2.20;;;;;;;3.19;45.85;148116.47;5083425;28;20336;-62
2023/04/14 04:59:09;;;;;;;3.50;2.20;;;;;;;3.13;45.57;148102.47;5083114;28;20131;-62
2023/04/14 05:01:35;;;;;;;3.00;1.70;;;;;;;2.94;46.17;148056.56;5094180;28;20459;-62
2023/04/14 05:04:01;;;;;;;6.78;2.33;;;;;;;3.10;45.98;148094.81;5096104;28;20043;-62
2023/04/14 05:06:27;;;;;;;6.00;1.90;;;;;;;3.23;44.93;148127.94;5083261;28;20074;-63
2023/04/14 05:08:55;;;;;;;3.00;1.95;;;;;;;2.68;45.44;147990.28;5103184;28;20139;-63
2023/04/14 05:11:21;;;;;;;4.35;2.15;;;;;;;3.20;45.61;148119.03;5084948;28;20064;-62
2023/04/14 05:13:47;;;;;;;5.22;1.90;;;;;;;3.02;44.51;148075.72;5095045;28;20043;-64
2023/04/14 05:16:13;;;;;;;3.58;1.90;;;;;;;3.33;44.61;148152.16;5094916;28;20096;-64
2023/04/14 05:18:40;;;;;;;3.92;2.00;;;;;;;2.73;44.80;148003.06;5083141;28;20048;-63
2023/04/14 05:21:13;;;;;;;3.83;2.00;;;;;;;2.61;44.77;147973.75;5083399;28;20408;-63
2023/04/14 05:23:42;;;;;;;5.75;2.05;;;;;;;3.10;43.87;148094.81;5103207;28;20091;-63
2023/04/14 05:26:09;;;;;;;2.13;1.73;;;;;;;2.78;44.29;148014.50;5087288;28;20043;-62
2023/04/14 05:28:35;;;;;;;5.57;1.77;;;;;;;3.26;43.52;148134.31;5094105;28;20028;-63
2023/04/14 05:31:01;;;;;;;3.30;1.80;;;;;;;3.84;43.00;148277.19;5097385;28;20024;-63
2023/04/14 05:33:27;;;;;;;3.70;1.63;;;;;;;4.14;41.83;148352.41;5101249;28;20031;-64
2023/04/14 05:35:52;;;;;;;2.00;1.42;;;;;;;4.33;41.14;148399.63;5081942;28;20028;-63
2023/04/14 05:38:19;;;;;;;5.47;1.90;;;;;;;4.42;40.72;148421.34;5082676;28;20044;-63
2023/04/14 05:40:45;;;;;;;3.88;1.80;;;;;;;4.17;41.74;148358.81;5095455;28;20035;-65
2023/04/14 05:43:10;;;;;;;3.00;1.55;;;;;;;3.60;41.48;148219.75;5095433;28;20048;-65
2023/04/14 05:45:36;;;;;;;4.95;1.67;;;;;;;4.10;41.29;148342.22;5084366;28;20028;-66
2023/04/14 05:48:02;;;;;;;4.10;1.65;;;;;;;4.40;40.77;148416.22;5103035;28;20027;-65
2023/04/14 05:50:28;;;;;;;4.60;1.73;;;;;;;4.24;40.16;148377.94;5082906;28;20032;-65
2023/04/14 05:52:53;;;;;;;7.95;1.60;;;;;;;4.85;38.70;148528.56;5107734;28;20114;-64
2023/04/14 05:55:19;;;;;;;4.05;2.08;;;;;;;4.79;38.71;148513.25;5105437;28;20082;-63
2023/04/14 05:57:45;;;;;;;5.90;1.88;;;;;;;5.24;38.01;148624.31;5086243;28;20123;-64
2023/04/14 06:00:11;;;;;;;7.63;1.95;;;;;;;5.05;37.73;148578.34;5096951;28;20028;-65
2023/04/14 06:02:38;;;;;;;5.32;2.00;;;;;;;5.55;38.00;148700.94;5091843;28;20040;-64
2023/04/14 06:05:06;;;;;;;6.50;1.52;;;;;;;5.29;37.70;148637.09;5094951;28;20027;-65
2023/04/14 06:07:32;;;;;;;8.15;1.77;;;;;;;5.96;36.60;148803.16;5094879;28;20043;-64
2023/04/14 06:09:58;;;;;;;2.80;1.80;;;;;;;6.08;36.27;148832.59;5094924;28;20032;-65
2023/04/14 06:12:24;;;;;;;7.63;2.05;;;;;;;5.17;37.49;148607.69;5086126;28;20027;-65
2023/04/14 06:14:49;;;;;;;2.10;1.65;;;;;;;5.03;37.32;148571.94;5086274;28;20127;-63
2023/04/14 06:17:15;;;;;;;5.78;2.53;;;;;;;5.34;36.95;148649.84;5102667;28;20028;-65
2023/04/14 06:19:41;;;;;;;9.10;1.85;;;;;;;5.66;35.76;148730.31;5094361;28;20024;-64
2023/04/14 06:22:07;;;;;;;4.43;1.70;;;;;;;5.80;36.06;148763.50;5092848;28;20186;-64
2023/04/14 06:24:33;;;;;;;4.28;1.90;;;;;;;6.07;35.89;148831.31;5103771;28;20027;-64
2023/04/14 06:26:59;;;;;;;3.72;2.00;;;;;;;6.09;35.23;148836.41;5085626;28;20051;-63
2023/04/14 06:29:25;;;;;;;4.03;1.85;;;;;;;5.97;35.52;148805.69;5103341;28;20092;-63
2023/04/14 06:31:51;;;;;;;3.22;1.88;;;;;;;5.62;35.52;148718.81;5101460;28;20039;-64
2023/04/14 06:34:17;;;;;;;6.28;2.00;;;;;;;5.29;35.99;148637.09;5096206;28;20017;-64
2023/04/14 06:36:42;;;;;;;14.88;2.03;;;;;;;5.07;35.93;148582.16;5085071;28;20044;-62
2023/04/14 06:39:08;;;;;;;5.70;1.90;;;;;;;5.23;35.01;148621.75;5085108;28;20044;-65
2023/04/14 06:41:34;;;;;;;3.97;1.60;;;;;;;4.99;35.71;148563.03;5104012;28;20313;-64
2023/04/14 06:44:00;;;;;;;7.78;2.05;;;;;;;5.86;35.60;148778.88;5091190;28;20016;-63
2023/04/14 06:46:25;;;;;;;2.42;1.35;;;;;;;5.91;34.60;148790.38;5094489;28;20024;-65
2023/04/14 06:48:51;;;;;;;4.00;1.95;;;;;;;6.13;34.62;148845.34;5100149;28;20068;-64
2023/04/14 06:51:17;;;;;;;2.20;1.77;;;;;;;5.53;35.09;148697.13;5085558;28;20041;-63
2023/04/14 06:53:42;;;;;;;4.15;1.63;;;;;;;5.93;34.26;148795.44;5105619;28;20409;-64
2023/04/14 06:56:08;;;;;;;15.05;1.92;;;;;;;6.12;33.78;148842.81;5105267;28;20040;-63
2023/04/14 06:58:34;;;;;;;2.72;1.60;;;;;;;5.40;34.46;148663.88;5095578;28;20046;-62
2023/04/14 07:01:01;;;;;;;4.45;1.90;;;;;;;5.62;34.32;148720.09;5085460;28;20092;-64
2023/04/14 07:03:29;;;;;;;4.35;1.98;;;;;;;6.34;34.56;148897.75;5086187;28;20040;-63
2023/04/14 07:06:02;;;;;;;3.10;1.50;;;;;;;6.94;32.53;149046.03;5100113;28;20253;-66
2023/04/14 07:08:31;;;;;;;8.40;1.92;;;;;;;6.78;32.85;149006.41;5102778;28;20115;-63
2023/04/14 07:11:05;;;;;;;1.77;1.48;;;;;;;7.42;32.76;149167.59;5089622;28;20066;-65
2023/04/14 07:13:32;;;;;;;3.67;1.60;;;;;;;7.84;30.67;149269.91;5094892;28;20020;-64
2023/04/14 07:15:59;;;;;;;4.50;1.70;;;;;;;8.43;31.04;149418.38;5100046;28;20028;-63
2023/04/14 07:18:25;;;;;;;5.30;1.63;;;;;;;7.87;30.72;149277.63;5085634;28;20033;-62
2023/04/14 07:20:57;;;;;;;5.63;1.90;;;;;;;8.21;30.87;149363.38;5105565;28;20024;-63
2023/04/14 07:23:22;;;;;;;4.93;1.65;;;;;;;7.19;31.05;149108.72;5087064;28;20042;-64
2023/04/14 07:25:52;;;;;;;3.10;1.30;;;;;;;7.27;31.74;149129.19;5085054;28;20444;-64
2023/04/14 07:28:18;;;;;;;4.45;1.80;;;;;;;7.50;30.49;149186.75;5092440;28;20040;-64
2023/04/14 07:30:44;;;;;;;3.75;1.55;;;;;;;7.90;30.72;149286.56;5101975;28;20029;-63
2023/04/14 07:33:11;;;;;;;4.05;1.50;;;;;;;7.82;30.21;149264.81;5104807;28;20024;-66
2023/04/14 07:35:37;;;;;;;2.10;1.65;;;;;;;8.36;30.03;149399.19;5085981;28;20070;-64
2023/04/14 07:38:03;;;;;;;5.00;1.50;;;;;;;8.09;29.39;149332.63;5084486;28;20024;-65
2023/04/14 07:40:28;;;;;;;4.32;1.52;;;;;;;7.33;30.45;149143.28;5093743;28;20031;-63
2023/04/14 07:42:54;;;;;;;3.40;1.50;;;;;;;8.42;30.36;149415.84;5100144;28;20241;-64
2023/04/14 07:45:19;;;;;;;6.63;1.75;;;;;;;8.75;28.86;149497.84;5097225;28;20032;-64
2023/04/14 07:47:45;;;;;;;5.57;1.77;;;;;;;8.12;30.71;149341.59;5085034;28;20024;-64
2023/04/14 07:50:11;;;;;;;2.60;1.40;;;;;;;7.12;31.00;149092.09;5084221;28;20040;-64
2023/04/14 07:52:37;;;;;;;7.03;1.85;;;;;;;8.21;29.95;149362.06;5083941;28;20392;-64
2023/04/14 07:55:03;;;;;;;8.00;3.85;;;;;;;8.10;29.43;149336.47;5070825;28;20032;-66
2023/04/14 07:57:29;;;;;;;3.28;1.80;;;;;;;7.03;30.74;149070.34;5103171;28;20328;-64
2023/04/14 07:59:54;;;;;;;2.45;1.38;;;;;;;7.09;30.81;149085.69;5082687;28;20090;-63
2023/04/14 08:02:21;;;;;;;4.30;1.63;;;;;;;7.26;30.96;149126.63;5100331;28;20227;-65
2023/04/14 08:04:46;;;;;;;2.25;1.60;;;;;;;6.71;31.54;148991.09;5092698;28;20343;-65
2023/04/14 08:07:12;;;;;;;3.28;1.80;;;;;;;6.96;31.82;149052.44;5083868;28;20024;-65
2023/04/14 08:09:38;;;;;;;5.75;1.67;;;;;;;6.35;32.12;148901.56;5085912;28;20028;-65
2023/04/14 08:12:04;;;;;;;6.03;2.08;;;;;;;6.27;32.35;148881.16;5104394;28;20028;-65
2023/04/14 08:14:29;;;;;;;6.60;1.80;;;;;;;6.53;31.22;148946.31;5086564;28;20407;-64
2023/04/14 08:16:55;;;;;;;2.30;1.45;;;;;;;6.20;31.58;148864.53;5087332;28;20020;-65
2023/04/14 08:19:20;;;;;;;3.60;1.73;;;;;;;6.28;31.61;148883.69;5088760;28;20044;-63
2023/04/14 08:21:46;;;;;;;3.20;1.60;;;;;;;6.55;31.97;148950.16;5103734;28;20051;-64
2023/04/14 08:24:11;;;;;;;4.22;1.50;;;;;;;6.80;32.35;149011.50;5103885;28;20024;-64
2023/04/14 08:26:37;;;;;;;4.88;1.73;;;;;;;7.03;32.08;149069.09;5085771;28;20052;-64
2023/04/14 08:29:03;;;;;;;2.28;1.70;;;;;;;7.11;31.21;149088.25;5097229;28;20020;-63
2023/04/14 08:31:28;;;;;;;3.72;1.40;;;;;;;7.08;31.25;149083.16;5089545;28;20080;-65
2023/04/14 08:33:54;;;;;;;1.77;1.67;;;;;;;7.09;32.01;149085.69;5087586;28;20023;-64
2023/04/14 08:36:20;;;;;;;5.15;1.65;;;;;;;7.12;31.61;149090.81;5103918;28;20305;-65
2023/04/14 08:38:46;;;;;;;3.00;1.65;;;;;;;7.47;30.86;149177.78;5083967;28;20025;-64
2023/04/14 08:41:13;;;;;;;7.00;1.92;;;;;;;7.24;31.95;149121.53;5097864;28;20030;-65
2023/04/14 08:43:39;;;;;;;3.35;1.50;;;;;;;7.82;31.71;149264.81;5092313;28;20339;-63
2023/04/14 08:46:08;;;;;;;7.32;1.98;;;;;;;7.29;30.96;149133.03;5083410;28;20056;-65
2023/04/14 08:48:36;;;;;;;10.57;2.25;;;;;;;7.99;30.30;149308.31;5083286;28;20024;-67
2023/04/14 08:51:37;;;;;;;5.93;1.60;;;;;;;8.33;30.25;149392.78;5082246;28;20028;-67
2023/04/14 08:54:08;;;;;;;2.58;1.65;;;;;;;8.39;29.54;149408.13;5075566;28;20045;-67
2023/04/14 08:56:39;;;;;;;2.30;1.92;;;;;;;8.17;29.13;149351.84;5100889;28;20061;-67
2023/04/14 08:59:06;;;;;;;4.55;1.80;;;;;;;8.54;29.89;149444.06;5090052;28;20082;-67
2023/04/14 09:01:37;;;;;;;4.55;1.70;;;;;;;9.14;28.52;149595.16;5092139;28;20039;-67
2023/04/14 09:04:03;;;;;;;4.22;1.85;;;;;;;8.46;29.34;149424.84;5098328;28;20036;-68
2023/04/14 09:06:33;;;;;;;4.97;2.05;;;;;;;8.13;29.86;149344.13;5083454;28;20044;-67
2023/04/14 09:09:07;;;;;;;8.20;1.98;;;;;;;7.70;30.51;149236.66;5103807;28;20195;-70
2023/04/14 09:11:34;;;;;;;1.40;1.30;;;;;;;8.11;29.78;149337.78;5086082;28;20039;-69
2023/04/14 09:14:00;;;;;;;6.70;1.70;;;;;;;7.85;30.28;149272.47;5083165;28;20105;-71
2023/04/14 09:16:27;;;;;;;5.70;1.70;;;;;;;7.54;30.34;149195.69;5091050;28;20293;-69
2023/04/14 09:18:56;;;;;;;6.03;1.90;;;;;;;7.58;30.24;149207.22;5100260;28;20051;-69
2023/04/14 09:21:23;;;;;;;8.90;2.10;;;;;;;8.22;30.52;149365.94;5083200;28;20263;-67
2023/04/14 09:23:48;;;;;;;3.80;1.73;;;;;;;7.31;31.23;149139.44;5102482;28;20034;-68
2023/04/14 09:26:15;;;;;;;5.10;1.80;;;;;;;7.70;31.11;149236.66;5101788;28;20106;-68
2023/04/14 09:28:40;;;;;;;9.63;1.92;;;;;;;8.09;30.73;149332.63;5093421;28;20104;-66
2023/04/14 09:31:07;;;;;;;4.13;1.63;;;;;;;8.32;30.49;149390.22;5085712;28;20055;-67
2023/04/14 09:33:44;;;;;;;2.53;1.48;;;;;;;7.47;30.95;149177.78;5102760;28;20355;-67
2023/04/14 09:36:20;;;;;;;3.17;1.55;;;;;;;7.34;30.55;149147.09;5086999;28;20313;-68
2023/04/14 09:38:47;;;;;;;7.18;1.75;;;;;;;7.39;30.46;149158.59;5087157;28;20028;-69
2023/04/14 09:41:24;;;;;;;2.25;1.58;;;;;;;7.88;30.41;149280.16;5100700;28;20125;-70
2023/04/14 09:43:54;;;;;;;4.78;1.70;;;;;;;7.81;29.96;149263.53;5107262;28;20028;-68
2023/04/14 09:46:20;;;;;;;4.00;1.35;;;;;;;7.47;30.56;149177.78;5100250;28;20092;-67
2023/04/14 09:48:55;;;;;;;1.50;1.40;;;;;;;7.34;30.47;149145.78;5086920;28;20162;-66
2023/04/14 09:51:28;;;;;;;5.50;1.98;;;;;;;7.38;30.82;149157.34;5086701;28;20021;-65
2023/04/14 09:53:59;;;;;;;6.50;2.17;;;;;;;7.87;29.78;149277.63;5091367;28;20107;-67
2023/04/14 09:56:26;;;;;;;2.78;1.80;;;;;;;7.76;30.51;149250.72;5101670;28;20044;-66
2023/04/14 09:58:57;;;;;;;5.65;1.85;;;;;;;7.56;29.73;149202.09;5095572;28;20099;-67
2023/04/14 10:01:22;;;;;;;5.75;1.58;;;;;;;8.04;30.43;149321.13;5093564;28;20024;-66
2023/04/14 10:03:49;;;;;;;3.85;1.50;;;;;;;7.85;29.54;149272.47;5104585;28;20052;-66
2023/04/14 10:06:17;;;;;;;3.15;1.48;;;;;;;7.81;29.01;149262.22;5085973;28;20044;-66
2023/04/14 10:08:45;;;;;;;4.55;1.73;;;;;;;7.89;29.25;149283.97;5104757;28;20066;-67
2023/04/14 10:11:21;;;;;;;2.63;1.13;;;;;;;7.05;29.59;149075.50;5106383;28;20028;-68
2023/04/14 10:14:01;;;;;;;3.05;1.42;;;;;;;7.37;29.62;149153.50;5096113;28;20024;-66
2023/04/14 10:16:26;;;;;;;3.88;1.33;;;;;;;7.64;29.83;149221.31;5085931;28;20032;-66
2023/04/14 10:18:53;;;;;;;4.30;1.60;;;;;;;8.03;29.71;149318.53;5087606;28;20284;-67
2023/04/14 10:21:23;;;;;;;3.42;1.45;;;;;;;8.00;29.00;149310.88;5105974;28;20024;-66
2023/04/14 10:23:49;;;;;;;7.85;1.80;;;;;;;8.16;28.97;149350.53;5087426;28;20029;-67
2023/04/14 10:26:16;;;;;;;4.63;1.30;;;;;;;8.50;27.97;149435.09;5085764;28;20089;-68
2023/04/14 10:28:44;;;;;;;2.47;1.30;;;;;;;8.05;29.09;149323.69;5086962;28;20039;-67
2023/04/14 10:31:22;;;;;;;3.67;1.60;;;;;;;8.27;28.17;149377.44;5103347;28;20027;-67
2023/04/14 10:33:48;;;;;;;4.55;1.40;;;;;;;7.81;28.98;149262.22;5087998;28;20052;-67
2023/04/14 10:36:23;;;;;;;1.60;1.35;;;;;;;7.57;28.06;149203.41;5105917;28;20544;-69
2023/04/14 10:38:49;;;;;;;3.58;1.60;;;;;;;8.01;29.07;149313.44;5087804;28;20070;-68
2023/04/14 10:41:14;;;;;;;9.27;1.70;;;;;;;8.50;28.52;149433.84;5086095;28;20096;-69
2023/04/14 10:43:40;;;;;;;3.28;1.50;;;;;;;8.21;27.12;149363.38;5095155;28;20277;-67
2023/04/14 10:46:08;;;;;;;6.22;1.90;;;;;;;8.59;27.55;149458.16;5101361;28;20028;-69
2023/04/14 10:48:37;;;;;;;4.80;1.60;;;;;;;8.58;27.98;149454.28;5085329;28;20098;-67
2023/04/14 10:51:08;;;;;;;2.13;1.45;;;;;;;8.30;28.19;149385.13;5090200;28;20132;-67
2023/04/14 10:53:45;;;;;;;7.50;1.70;;;;;;;8.94;27.28;149545.22;5099945;28;20305;-69
2023/04/14 10:56:11;;;;;;;2.17;1.42;;;;;;;9.02;26.49;149564.47;5085836;28;20089;-67
2023/04/14 10:58:37;;;;;;;4.40;1.70;;;;;;;9.12;26.78;149588.75;5094293;28;20059;-68
2023/04/14 11:01:25;;;;;;;3.47;1.60;;;;;;;8.53;25.89;149441.50;5102361;28;20095;-66
2023/04/14 11:03:53;;;;;;;3.22;1.35;;;;;;;8.00;25.85;149310.88;5085596;28;20070;-68
2023/04/14 11:06:46;;;;;;;4.22;1.98;;;;;;;7.92;27.06;149291.69;5085534;28;20309;-68
2023/04/14 11:09:32;;;;;;;2.38;1.55;;;;;;;8.58;27.31;149455.59;5085484;28;20073;-66
2023/04/14 11:12:27;;;;;;;2.47;1.60;;;;;;;8.52;25.43;149440.19;5103806;28;20028;-67
2023/04/14 11:15:11;;;;;;;1.60;1.50;;;;;;;8.41;25.07;149413.28;5099279;28;20347;-65
2023/04/14 11:17:44;;;;;;;4.18;1.52;;;;;;;8.61;25.66;149463.25;5105481;28;20028;-67
2023/04/14 11:20:28;;;;;;;5.18;2.28;;;;;;;9.01;25.16;149560.56;5092569;28;20061;-66
2023/04/14 11:22:57;;;;;;;4.95;1.70;;;;;;;8.94;25.27;149543.94;5094802;28;20197;-67
2023/04/14 11:25:23;;;;;;;3.75;1.70;;;;;;;9.00;25.58;149559.31;5100506;28;20032;-66
2023/04/14 11:27:48;;;;;;;11.55;1.90;;;;;;;8.63;25.33;149468.38;5084937;28;20054;-66
2023/04/14 11:30:16;;;;;;;6.35;2.10;;;;;;;9.00;25.58;149558.03;5084222;28;20040;-68
2023/04/14 11:32:50;;;;;;;2.97;1.67;;;;;;;9.31;25.76;149637.44;5085948;28;20036;-69
2023/04/14 11:35:21;;;;;;;5.00;1.92;;;;;;;8.97;24.20;149552.91;5098473;28;20301;-69
2023/04/14 11:37:47;;;;;;;7.88;2.22;;;;;;;9.23;24.99;149616.94;5094203;28;20044;-69
2023/04/14 11:40:14;;;;;;;7.60;2.20;;;;;;;9.46;24.90;149674.63;5089468;28;20085;-70